Glasgow, MT

4:55 PM MST on January 30, 2015 (GMT -0700)
Jordan | Change Station
CLOSE
Current Station
Airport
Location: Jordan,
Elevation: 2661 ft
Nearby Weather Stations
Active Advisory: Winter Weather Advisory

Elev 2661 ft 47.33 °N, 106.95 °W | Updated 7 minutes ago

Clear
Clear
42 °F
Feels Like 40 °F
N
4
Wind Variable Wind from East
Gusts 6 mph

Today
High -- | Low -- °F
--% Chance of Precip.
Yesterday
High -- | Low -- °F
Precip. -- in
7:36 AM 5:02 PM
Waxing Gibbous, 86% visible
Pressure 30.24 in
Visibility -9999.0 miles
Clouds
Windchill 40 °F
Dew Point 26 °F
Humidity 53%
Rainfall 0.00 in
Snow Depth Not available.
UV Not available.
Pollen .10 out of 12
Air Quality Not available.
Flu Activity Not available.
METAR KJDN 302348Z AUTO 09003KT 06/M03 A3015 RMK AO1 SLP238 T00561033 10078 20033 56010

More Conditions Fewer Conditions

Pressure 30.24 in
Visibility -9999.0 miles
Clouds
Windchill 40 °F
Dew Point 26 °F
Humidity 53%
Rainfall 0.00 in
Snow Depth Not available.
UV Not available.
Pollen .10 out of 12
Air Quality Not available.
Flu Activity Not available.
METAR KJDN 302348Z AUTO 09003KT 06/M03 A3015 RMK AO1 SLP238 T00561033 10078 20033 56010

More Conditions Fewer Conditions

10-Day Weather Forecast

Almanac

Astronomy

Jan. 30, 2015 Rise Set
Actual Time
Civil Twilight
Nautical Twilight
Astronomical Twilight
Moon
Length of Visible Light
Length of Day
Tomorrow will be .
, % of the Moon is Illuminated

Today's Extremes

State Highs State Lows

Community

WunderPhotos

Upload Photos

1,791,934 photos uploaded!

WunderBlogs® & News

Nearby

Air Quality

  Air Quality AQ Index Pollutant
Not available.

Snow Depth

Station Depth Elevation

Earthquake Activity

City Distance Mag. Time & Date
Minimum magnitude displayed is 2.5.

Coastal Water Temperatures

Place Temperature

Nearby Weather Stations